This is the latest recevied weather packets stored in our database for station/object JS1SZZ-13. If no packets are shown the sender has not sent any weather packets the latest 10 day(s).
| Time | Temp. | Humidity | Pressure | Rain* | Wind** | Luminosity | Snow |
|---|---|---|---|---|---|---|---|
| 1777929599 | 8.33° C | 76% | 1016.6 hPa | 0 mm | - | - | - |
| 1777928701 | 6.67° C | 84% | 1016.4 hPa | 0 mm | - | - | - |
| 1777927800 | 4.44° C | 89% | 1016.1 hPa | 0 mm | - | - | - |
| 1777926899 | 3.33° C | 90% | 1015.8 hPa | 0 mm | - | - | - |
| 1777926001 | 2.78° C | 88% | 1015.7 hPa | 0 mm | - | - | - |
| 1777925100 | 2.78° C | 88% | 1015.3 hPa | 0 mm | - | - | - |
| 1777924199 | 2.78° C | 88% | 1015.1 hPa | 0 mm | - | - | - |
| 1777923301 | 3.33° C | 87% | 1014.9 hPa | 0 mm | - | - | - |
| 1777922400 | 3.33° C | 87% | 1014.4 hPa | 0 mm | - | - | - |
| 1777921499 | 3.33° C | 85% | 1014.3 hPa | 0 mm | - | - | - |
| 1777920600 | 3.89° C | 83% | 1014.1 hPa | 0 mm | - | - | - |
| 1777919700 | 3.89° C | 82% | 1013.8 hPa | 0 mm | - | - | - |
| 1777918799 | 4.44° C | 80% | 1013.4 hPa | 0 mm | - | - | - |
| 1777917900 | 4.44° C | 80% | 1013.2 hPa | 0 mm | - | - | - |
| 1777916999 | 5° C | 78% | 1012.9 hPa | 0 mm | - | - | - |
| 1777916101 | 5° C | 77% | 1012.7 hPa | 0 mm | - | - | - |
| 1777915200 | 5.56° C | 74% | 1012.6 hPa | 0 mm | - | - | - |
| 1777914300 | 6.11° C | 71% | 1012.6 hPa | 0 mm | - | - | - |
| 1777913401 | 6.11° C | 70% | 1012.2 hPa | 0 mm | - | - | - |
| 1777912500 | 6.67° C | 71% | 1012.1 hPa | 0 mm | - | - | - |
| 1777911600 | 7.22° C | 67% | 1011.6 hPa | 0 mm | - | - | - |
| 1777910701 | 7.78° C | 62% | 1011.3 hPa | 0 mm | - | - | - |
| 1777909800 | 8.33° C | 57% | 1011.2 hPa | 0 mm | - | - | - |
| 1777908900 | 8.33° C | 55% | 1010.9 hPa | 0 mm | - | - | - |
| 1777907999 | 7.78° C | 63% | 1010.7 hPa | 0 mm | - | - | - |
* Rain latest hour (hover to see other rain measurements)
** Current wind speed in m/s (hover to see current wind gust speed)